Time;durP1;ratioP1;P1;durP2;ratioP2;P2;SDS_P1;SDS_P2;PMS_P1;PMS_P2;Temp;Humidity;BMP_temperature;BMP_pressure;BME280_temperature;BME280_humidity;BME280_pressure;Samples;Min_cycle;Max_cycle;Signal;HPM_P1;HPM_P2
2023/04/01 05:00:37;;;;;;;1.97;1.27;;;8.80;97.20;;;;;;1714978;28;20206;-66
2023/04/01 05:01:28;;;;;;;2.40;0.75;;;8.80;97.20;;;;;;1714901;28;20206;-67
2023/04/01 05:02:20;;;;;;;1.45;0.73;;;8.80;97.20;;;;;;1714926;28;20735;-66
2023/04/01 05:03:12;;;;;;;1.27;0.60;;;8.80;97.20;;;;;;1714914;28;20201;-66
2023/04/01 05:04:03;;;;;;;1.38;0.77;;;8.80;97.20;;;;;;1709242;28;20653;-67
2023/04/01 05:04:54;;;;;;;2.35;0.70;;;8.80;97.20;;;;;;1708299;29;20206;-67
2023/04/01 05:05:51;;;;;;;3.10;0.60;;;8.80;97.20;;;;;;1708110;29;20222;-67
2023/04/01 05:06:43;;;;;;;2.08;0.60;;;8.80;97.20;;;;;;1708242;29;20202;-67
2023/04/01 05:07:35;;;;;;;1.98;0.70;;;8.80;97.20;;;;;;1708275;29;20279;-67
2023/04/01 05:08:25;;;;;;;1.98;0.70;;;8.80;97.20;;;;;;1708254;29;20580;-66
2023/04/01 05:09:17;;;;;;;2.20;0.60;;;8.80;97.20;;;;;;1708237;29;20211;-66
2023/04/01 05:10:09;;;;;;;2.65;0.80;;;8.80;97.20;;;;;;1708340;29;20202;-66
2023/04/01 05:11:01;;;;;;;1.42;0.75;;;8.80;97.20;;;;;;1708218;28;20202;-68
2023/04/01 05:11:52;;;;;;;1.33;0.70;;;8.80;97.20;;;;;;1708317;29;20263;-67
2023/04/01 05:12:43;;;;;;;2.20;0.80;;;8.70;97.20;;;;;;1708235;29;20270;-67
2023/04/01 05:13:34;;;;;;;1.52;0.70;;;8.80;97.20;;;;;;1708940;28;20291;-67
2023/04/01 05:14:26;;;;;;;2.90;0.90;;;8.80;97.20;;;;;;1708267;28;20218;-66
2023/04/01 05:15:17;;;;;;;4.03;1.00;;;8.70;97.20;;;;;;1708144;29;20477;-67
2023/04/01 05:16:12;;;;;;;2.80;1.00;;;8.70;97.20;;;;;;1708205;29;20201;-68
2023/04/01 05:17:03;;;;;;;1.40;0.65;;;8.70;97.20;;;;;;1708187;29;20450;-66
2023/04/01 05:17:54;;;;;;;3.23;0.80;;;8.80;97.20;;;;;;1708230;29;20206;-68
2023/04/01 05:18:46;;;;;;;1.30;0.80;;;8.80;97.20;;;;;;1708164;29;20214;-67
2023/04/01 05:19:38;;;;;;;1.45;0.80;;;8.80;97.20;;;;;;1708318;29;20206;-67
2023/04/01 05:20:29;;;;;;;3.42;0.90;;;8.80;97.20;;;;;;1708141;29;20703;-66
2023/04/01 05:21:21;;;;;;;1.37;0.70;;;8.80;97.20;;;;;;1708167;29;20573;-67
2023/04/01 05:22:11;;;;;;;3.97;1.33;;;8.80;97.20;;;;;;1708153;29;20242;-67
2023/04/01 05:23:03;;;;;;;2.80;1.13;;;8.80;97.20;;;;;;1708071;29;20213;-67
2023/04/01 05:23:54;;;;;;;3.65;0.80;;;8.80;97.20;;;;;;1711283;28;20199;-68
2023/04/01 05:24:45;;;;;;;2.00;0.90;;;8.80;97.20;;;;;;1714602;28;20205;-66
2023/04/01 05:25:38;;;;;;;1.98;0.80;;;8.80;97.20;;;;;;1714557;28;20209;-67
2023/04/01 05:26:30;;;;;;;2.88;0.90;;;8.90;97.20;;;;;;1714904;28;20241;-66
2023/04/01 05:27:21;;;;;;;1.70;0.80;;;8.90;97.20;;;;;;1714822;28;20289;-66
2023/04/01 05:28:13;;;;;;;2.03;0.70;;;8.90;97.20;;;;;;1714837;28;20214;-66
2023/04/01 05:29:04;;;;;;;3.70;1.02;;;8.90;97.20;;;;;;1714767;28;20209;-66
2023/04/01 05:29:56;;;;;;;1.63;0.70;;;8.90;97.20;;;;;;1714778;28;20198;-67
2023/04/01 05:30:46;;;;;;;2.22;1.00;;;8.90;97.20;;;;;;1707935;28;20288;-68
2023/04/01 05:31:39;;;;;;;1.53;0.70;;;8.90;97.20;;;;;;1708141;29;20264;-67
2023/04/01 05:32:31;;;;;;;1.73;0.63;;;9.00;97.20;;;;;;1708087;29;20211;-67
2023/04/01 05:33:22;;;;;;;1.95;0.80;;;9.00;97.20;;;;;;1708050;29;20281;-66
2023/04/01 05:34:14;;;;;;;1.23;0.77;;;9.00;97.20;;;;;;1707875;29;20677;-67
2023/04/01 05:35:06;;;;;;;2.17;0.73;;;9.00;97.20;;;;;;1707979;29;20210;-67
2023/04/01 05:36:06;;;;;;;4.18;0.82;;;9.00;97.20;;;;;;1708043;28;20203;-67
2023/04/01 05:36:57;;;;;;;2.45;1.10;;;9.00;97.20;;;;;;1708152;29;20206;-67
2023/04/01 05:37:48;;;;;;;1.85;0.80;;;9.10;97.20;;;;;;1708038;29;20206;-66
2023/04/01 05:38:40;;;;;;;3.77;0.90;;;9.10;97.20;;;;;;1708082;29;20203;-67
2023/04/01 05:39:30;;;;;;;2.83;0.70;;;9.10;97.20;;;;;;1708008;28;20211;-68
2023/04/01 05:40:22;;;;;;;1.43;0.83;;;9.10;97.20;;;;;;1714044;28;20350;-67
2023/04/01 05:41:13;;;;;;;2.25;0.75;;;9.10;97.20;;;;;;1714715;28;20586;-67
2023/04/01 05:42:06;;;;;;;2.83;1.03;;;9.10;97.20;;;;;;1714675;28;20225;-66
2023/04/01 05:42:58;;;;;;;2.45;0.90;;;9.20;97.20;;;;;;1714561;28;20445;-67
2023/04/01 05:43:50;;;;;;;1.98;0.70;;;9.20;97.20;;;;;;1714490;28;20681;-67
2023/04/01 05:44:41;;;;;;;2.60;0.80;;;9.20;97.20;;;;;;1714315;28;20228;-67
2023/04/01 05:45:32;;;;;;;2.45;0.75;;;9.20;97.20;;;;;;1714509;28;20316;-66
2023/04/01 05:46:23;;;;;;;1.65;0.80;;;9.20;97.20;;;;;;1714637;28;20423;-67
2023/04/01 05:47:16;;;;;;;2.60;0.77;;;9.20;97.20;;;;;;1714737;28;20285;-67
2023/04/01 05:48:07;;;;;;;2.00;0.80;;;9.20;97.20;;;;;;1714605;28;20224;-67
2023/04/01 05:48:58;;;;;;;2.30;0.97;;;9.20;97.20;;;;;;1714620;28;20197;-67
2023/04/01 05:49:49;;;;;;;1.60;0.73;;;9.20;97.20;;;;;;1713255;28;20202;-67
2023/04/01 05:50:42;;;;;;;2.50;0.80;;;9.20;97.20;;;;;;1708058;29;20228;-67
2023/04/01 05:51:33;;;;;;;1.58;0.70;;;9.20;97.20;;;;;;1708016;29;20265;-68
2023/04/01 05:52:25;;;;;;;2.80;0.90;;;9.20;97.20;;;;;;1707736;28;20238;-67
2023/04/01 05:53:15;;;;;;;1.20;0.77;;;9.20;97.20;;;;;;1707922;29;20235;-67
2023/04/01 05:54:07;;;;;;;2.40;0.90;;;9.30;97.20;;;;;;1707675;29;20202;-67
2023/04/01 05:55:00;;;;;;;1.85;0.80;;;9.30;97.20;;;;;;1707911;29;20210;-66
2023/04/01 05:55:51;;;;;;;2.45;1.17;;;9.30;97.20;;;;;;1707985;29;20603;-67
2023/04/01 05:56:42;;;;;;;2.35;1.05;;;9.30;97.20;;;;;;1707870;29;20206;-66
2023/04/01 05:57:36;;;;;;;1.67;0.80;;;9.30;97.20;;;;;;1708023;29;20202;-71
2023/04/01 05:58:27;;;;;;;3.20;0.93;;;9.30;97.20;;;;;;1707930;28;20669;-66
2023/04/01 05:59:19;;;;;;;2.03;0.90;;;9.40;97.20;;;;;;1707994;29;20673;-66
2023/04/01 06:00:11;;;;;;;2.13;0.90;;;9.40;97.20;;;;;;1711295;28;20691;-66
2023/04/01 06:01:04;;;;;;;2.95;0.95;;;9.40;97.20;;;;;;1714512;28;20208;-66
2023/04/01 06:01:54;;;;;;;2.92;1.00;;;9.40;97.20;;;;;;1714623;28;20597;-66
2023/04/01 06:02:47;;;;;;;1.77;0.87;;;9.40;97.20;;;;;;1714547;28;20224;-67
2023/04/01 06:03:38;;;;;;;1.83;0.90;;;9.50;97.20;;;;;;1714494;28;20472;-66
2023/04/01 06:04:38;;;;;;;2.83;0.90;;;9.50;97.20;;;;;;1714213;28;20276;-67
2023/04/01 06:05:30;;;;;;;3.80;0.95;;;9.50;97.20;;;;;;1714470;28;20967;-66
2023/04/01 06:06:26;;;;;;;1.95;1.50;;;9.60;97.20;;;;;;1714366;28;20760;-65
2023/04/01 06:07:17;;;;;;;3.60;1.25;;;9.60;97.20;;;;;;1714262;28;20206;-66
2023/04/01 06:08:12;;;;;;;1.63;1.00;;;9.60;97.20;;;;;;1714475;28;20198;-66
2023/04/01 06:09:12;;;;;;;3.70;1.00;;;9.60;97.20;;;;;;1711270;28;20198;-65
2023/04/01 06:10:12;;;;;;;3.30;1.30;;;9.70;97.20;;;;;;1708822;28;20232;-66
2023/04/01 06:11:16;;;;;;;2.20;0.80;;;9.70;97.20;;;;;;1712483;28;20717;-67
2023/04/01 06:12:30;;;;;;;2.58;0.85;;;9.70;97.20;;;;;;1712175;28;20236;-66
2023/04/01 06:13:32;;;;;;;1.88;0.80;;;9.80;97.20;;;;;;1710552;28;20201;-66
2023/04/01 06:14:34;;;;;;;3.00;1.05;;;9.80;97.20;;;;;;1714266;28;20202;-66
2023/04/01 06:15:38;;;;;;;1.85;0.70;;;9.80;97.20;;;;;;1714430;28;20206;-66
2023/04/01 06:16:39;;;;;;;2.25;0.73;;;9.80;97.20;;;;;;1709613;28;20269;-66
2023/04/01 06:17:41;;;;;;;1.58;0.68;;;9.80;97.20;;;;;;1707825;29;20234;-67
2023/04/01 06:19:00;;;;;;;1.63;0.60;;;9.90;97.20;;;;;;1713813;28;20213;-67
2023/04/01 06:19:57;;;;;;;1.13;0.60;;;9.90;97.20;;;;;;1714518;28;20202;-67
2023/04/01 06:20:59;;;;;;;2.08;0.70;;;9.90;97.20;;;;;;1714573;28;20767;-69
2023/04/01 06:22:22;;;;;;;1.95;0.88;;;9.90;97.20;;;;;;1714555;28;20205;-67
2023/04/01 06:23:34;;;;;;;1.95;0.80;;;9.90;97.20;;;;;;1714512;28;20289;-67
2023/04/01 06:24:51;;;;;;;2.38;0.90;;;9.90;97.20;;;;;;1714202;28;20206;-67
2023/04/01 06:25:55;;;;;;;1.67;0.80;;;10.00;97.20;;;;;;1714139;28;20205;-65
2023/04/01 06:26:58;;;;;;;2.55;1.20;;;10.00;97.20;;;;;;1714615;28;20797;-68
2023/04/01 06:28:11;;;;;;;1.90;1.10;;;10.00;97.20;;;;;;1712762;28;20239;-67
2023/04/01 06:29:23;;;;;;;1.48;1.13;;;10.00;97.20;;;;;;1711357;28;20244;-68
2023/04/01 06:30:31;;;;;;;1.52;0.68;;;10.00;97.20;;;;;;1709984;28;20278;-67
2023/04/01 06:31:47;;;;;;;2.05;0.80;;;10.00;97.20;;;;;;1708647;28;20676;-67
2023/04/01 06:32:55;;;;;;;2.05;0.80;;;10.00;97.20;;;;;;1714377;28;20205;-67
2023/04/01 06:34:06;;;;;;;2.03;1.17;;;10.10;97.20;;;;;;1714339;28;20206;-68
2023/04/01 06:35:18;;;;;;;4.35;1.58;;;10.10;97.20;;;;;;1714500;28;20217;-68
2023/04/01 06:36:35;;;;;;;3.55;1.30;;;10.10;97.20;;;;;;1714450;28;20293;-69
2023/04/01 06:37:45;;;;;;;1.80;0.80;;;10.10;97.20;;;;;;1711307;28;20631;-67
2023/04/01 06:38:56;;;;;;;3.85;1.08;;;10.10;97.20;;;;;;1714341;28;20256;-67
2023/04/01 06:40:01;;;;;;;1.40;0.60;;;10.10;97.20;;;;;;1714304;28;20213;-67
2023/04/01 06:41:18;;;;;;;2.30;1.23;;;10.00;97.20;;;;;;1714326;28;20249;-66
2023/04/01 06:42:31;;;;;;;2.60;0.93;;;10.00;97.20;;;;;;1714327;28;20668;-66
2023/04/01 06:43:28;;;;;;;2.45;1.05;;;10.00;97.20;;;;;;1712766;28;20203;-67
2023/04/01 06:44:30;;;;;;;3.35;0.93;;;10.00;97.20;;;;;;1712079;28;20206;-67
2023/04/01 06:45:31;;;;;;;2.75;1.30;;;10.00;97.20;;;;;;1713911;28;20207;-68
2023/04/01 06:46:35;;;;;;;3.33;0.90;;;10.00;97.20;;;;;;1713922;28;20578;-67
2023/04/01 06:47:39;;;;;;;2.40;0.85;;;10.10;97.20;;;;;;1714355;28;20206;-67
2023/04/01 06:48:48;;;;;;;3.55;1.10;;;10.10;97.20;;;;;;1714267;28;20201;-67
2023/04/01 06:49:51;;;;;;;2.58;0.80;;;10.00;97.20;;;;;;1714321;28;20237;-66
2023/04/01 06:50:50;;;;;;;2.15;0.90;;;10.10;97.20;;;;;;1714318;28;20717;-66
2023/04/01 06:51:51;;;;;;;3.85;0.93;;;10.10;97.20;;;;;;1714262;28;20205;-66
2023/04/01 06:52:51;;;;;;;1.65;1.05;;;10.10;97.20;;;;;;1714244;28;20213;-67
2023/04/01 06:53:47;;;;;;;2.13;0.80;;;10.10;97.20;;;;;;1714293;28;20234;-66
2023/04/01 06:54:43;;;;;;;1.70;0.88;;;10.10;97.20;;;;;;1714010;28;20205;-67
2023/04/01 06:55:41;;;;;;;2.67;1.10;;;10.10;97.20;;;;;;1710162;28;20214;-67
2023/04/01 06:56:33;;;;;;;2.55;1.35;;;10.10;97.20;;;;;;1707685;29;20198;-67
2023/04/01 06:57:29;;;;;;;2.10;1.05;;;10.10;97.20;;;;;;1707549;29;20228;-67
2023/04/01 06:58:23;;;;;;;3.92;1.10;;;10.10;97.20;;;;;;1707575;29;20219;-67
2023/04/01 06:59:17;;;;;;;2.83;1.30;;;10.10;97.20;;;;;;1707614;29;20215;-67
2023/04/01 07:00:16;;;;;;;1.80;0.90;;;10.10;97.20;;;;;;1708369;28;20229;-69
2023/04/01 07:01:11;;;;;;;2.28;1.00;;;10.10;97.20;;;;;;1707430;28;20225;-68
2023/04/01 07:02:15;;;;;;;0.80;0.77;;;10.10;97.20;;;;;;1713208;28;20202;-67
2023/04/01 07:03:16;;;;;;;6.40;1.10;;;10.20;97.20;;;;;;1713092;28;20297;-67
2023/04/01 07:04:13;;;;;;;1.90;0.85;;;10.20;97.20;;;;;;1712365;28;20210;-67
2023/04/01 07:05:07;;;;;;;1.70;1.00;;;10.20;97.20;;;;;;1713167;28;20716;-68
2023/04/01 07:06:03;;;;;;;1.60;0.80;;;10.20;97.20;;;;;;1713340;28;20206;-66
2023/04/01 07:06:57;;;;;;;1.80;0.80;;;10.20;97.20;;;;;;1713479;28;20212;-68
2023/04/01 07:07:55;;;;;;;1.40;0.82;;;10.20;97.20;;;;;;1713198;28;20198;-67
2023/04/01 07:08:48;;;;;;;2.38;1.08;;;10.30;97.20;;;;;;1713452;28;20202;-67
2023/04/01 07:09:42;;;;;;;1.98;1.00;;;10.30;97.20;;;;;;1713398;28;20216;-68
2023/04/01 07:10:42;;;;;;;3.35;1.10;;;10.30;97.20;;;;;;1713288;28;20226;-69
2023/04/01 07:11:38;;;;;;;1.77;0.80;;;10.30;97.20;;;;;;1713472;28;20213;-67
2023/04/01 07:12:37;;;;;;;3.13;1.05;;;10.40;97.20;;;;;;1713436;28;20733;-67
2023/04/01 07:13:33;;;;;;;6.93;1.30;;;10.40;97.20;;;;;;1712344;28;20281;-66
2023/04/01 07:14:28;;;;;;;2.63;0.90;;;10.40;97.20;;;;;;1712429;28;20209;-66
2023/04/01 07:15:25;;;;;;;2.55;0.90;;;10.40;97.20;;;;;;1713090;28;20233;-67
2023/04/01 07:16:20;;;;;;;1.67;0.60;;;10.30;97.20;;;;;;1713508;28;20194;-67
2023/04/01 07:17:17;;;;;;;1.42;0.73;;;10.30;97.20;;;;;;1713232;28;20288;-66
2023/04/01 07:18:14;;;;;;;2.25;0.98;;;10.30;97.20;;;;;;1711313;28;20197;-67
2023/04/01 07:19:11;;;;;;;1.60;0.65;;;10.30;97.20;;;;;;1712903;28;20190;-66
2023/04/01 07:20:10;;;;;;;3.00;1.00;;;10.40;97.20;;;;;;1713142;28;20198;-67
2023/04/01 07:21:05;;;;;;;3.25;0.80;;;10.40;97.20;;;;;;1714028;28;20261;-67
2023/04/01 07:22:01;;;;;;;1.58;0.90;;;10.40;97.20;;;;;;1714033;28;20206;-68
2023/04/01 07:22:57;;;;;;;1.50;0.90;;;10.40;97.20;;;;;;1713841;28;20214;-68
2023/04/01 07:23:50;;;;;;;2.97;0.85;;;10.40;97.20;;;;;;1712898;28;20220;-66
2023/04/01 07:24:45;;;;;;;1.83;0.90;;;10.50;97.20;;;;;;1711454;28;20276;-67
2023/04/01 07:25:39;;;;;;;0.88;0.60;;;10.50;97.20;;;;;;1713712;28;20206;-68
2023/04/01 07:26:32;;;;;;;1.42;0.70;;;10.50;97.20;;;;;;1713905;28;20229;-67
2023/04/01 07:27:23;;;;;;;2.00;0.82;;;10.50;97.20;;;;;;1713332;28;20430;-68
2023/04/01 07:28:17;;;;;;;2.30;1.20;;;10.50;97.20;;;;;;1713987;28;20232;-69
2023/04/01 07:29:11;;;;;;;2.35;0.88;;;10.50;97.20;;;;;;1713893;28;20209;-69
2023/04/01 07:30:13;;;;;;;2.28;0.90;;;10.50;97.20;;;;;;1713921;28;20205;-67
2023/04/01 07:31:17;;;;;;;13.75;1.60;;;10.50;97.20;;;;;;1709806;28;20209;-68
2023/04/01 07:32:27;;;;;;;3.15;1.08;;;10.50;97.20;;;;;;1713873;28;20812;-69
2023/04/01 07:33:24;;;;;;;1.77;0.90;;;10.50;97.20;;;;;;1708113;28;20607;-69
2023/04/01 07:34:24;;;;;;;1.10;0.82;;;10.50;97.20;;;;;;1713441;28;20600;-67
2023/04/01 07:35:27;;;;;;;3.55;0.90;;;10.50;97.20;;;;;;1707826;28;20203;-68
2023/04/01 07:36:25;;;;;;;4.72;0.70;;;10.50;97.20;;;;;;1707241;29;20217;-67
2023/04/01 07:37:21;;;;;;;3.63;0.93;;;10.50;97.20;;;;;;1707261;29;20203;-67
2023/04/01 07:38:27;;;;;;;2.15;1.00;;;10.50;97.20;;;;;;1707341;29;20211;-66
2023/04/01 07:39:31;;;;;;;1.88;0.90;;;10.50;97.20;;;;;;1711351;28;20228;-69
2023/04/01 07:40:32;;;;;;;1.88;0.90;;;10.50;97.20;;;;;;1713767;28;20300;-66
2023/04/01 07:41:33;;;;;;;1.55;0.90;;;10.50;97.20;;;;;;1713883;28;20210;-68
2023/04/01 07:42:33;;;;;;;1.33;0.80;;;10.50;97.20;;;;;;1713947;28;20213;-66
2023/04/01 07:43:51;;;;;;;1.00;0.70;;;10.40;97.20;;;;;;1711652;28;20656;-67
2023/04/01 07:44:50;;;;;;;2.45;0.80;;;10.40;97.20;;;;;;1700402;28;20256;-69
2023/04/01 07:45:51;;;;;;;2.63;0.68;;;10.40;97.20;;;;;;1711242;28;20676;-66
2023/04/01 07:47:02;;;;;;;2.05;0.65;;;10.50;97.20;;;;;;1713650;28;20230;-67
2023/04/01 07:48:06;;;;;;;2.65;0.88;;;10.40;97.20;;;;;;1709358;28;20198;-68
2023/04/01 07:49:07;;;;;;;1.23;0.70;;;10.40;97.20;;;;;;1707457;28;20199;-68
2023/04/01 07:50:07;;;;;;;2.50;0.90;;;10.40;97.20;;;;;;1707495;28;20206;-67
2023/04/01 07:51:05;;;;;;;1.65;0.75;;;10.50;97.20;;;;;;1707214;29;20234;-66
2023/04/01 07:52:03;;;;;;;2.75;1.10;;;10.50;97.20;;;;;;1707304;29;20213;-67
2023/04/01 07:53:09;;;;;;;2.35;0.95;;;10.50;97.20;;;;;;1707197;29;20215;-67
2023/04/01 07:54:07;;;;;;;1.52;0.80;;;10.50;97.20;;;;;;1713089;28;20687;-67
2023/04/01 07:55:05;;;;;;;2.20;1.00;;;10.60;97.20;;;;;;1714002;28;20222;-68
2023/04/01 07:56:04;;;;;;;1.25;0.80;;;10.50;97.20;;;;;;1713739;28;20209;-67
2023/04/01 07:57:02;;;;;;;2.90;0.90;;;10.60;97.20;;;;;;1713951;28;20242;-68
2023/04/01 07:58:03;;;;;;;5.00;0.70;;;10.60;97.20;;;;;;1714075;28;20205;-67
2023/04/01 07:59:03;;;;;;;2.28;0.80;;;10.60;97.20;;;;;;1713816;28;20206;-67
2023/04/01 08:00:02;;;;;;;3.17;0.70;;;10.60;97.20;;;;;;1714006;28;20241;-67
2023/04/01 08:01:00;;;;;;;2.15;0.80;;;10.60;97.20;;;;;;1713798;28;20221;-66
2023/04/01 08:02:02;;;;;;;1.45;0.85;;;10.60;97.20;;;;;;1713814;28;20213;-68
2023/04/01 08:03:17;;;;;;;1.75;0.90;;;10.60;97.20;;;;;;1713657;28;20210;-68
2023/04/01 08:04:23;;;;;;;1.17;0.57;;;10.60;97.20;;;;;;1706624;29;20580;-68
2023/04/01 08:05:23;;;;;;;1.38;0.75;;;10.60;97.20;;;;;;1707124;29;20694;-67
2023/04/01 08:06:19;;;;;;;2.00;0.80;;;10.60;97.20;;;;;;1707143;29;20233;-67
2023/04/01 08:07:17;;;;;;;2.00;0.70;;;10.60;97.20;;;;;;1707107;29;20229;-67
2023/04/01 08:08:19;;;;;;;1.02;0.65;;;10.60;97.20;;;;;;1707076;29;20669;-67
2023/04/01 08:09:17;;;;;;;2.60;1.20;;;10.60;97.20;;;;;;1707142;29;20257;-67
2023/04/01 08:10:18;;;;;;;0.80;0.60;;;10.60;97.20;;;;;;1707195;29;20213;-67
2023/04/01 08:11:22;;;;;;;1.20;0.70;;;10.60;97.20;;;;;;1707074;29;20202;-68
2023/04/01 08:12:28;;;;;;;2.05;1.10;;;10.70;97.20;;;;;;1707258;28;20206;-67
2023/04/01 08:13:31;;;;;;;2.15;0.95;;;10.70;97.20;;;;;;1707237;28;20218;-68
2023/04/01 08:14:31;;;;;;;1.02;0.70;;;10.70;97.20;;;;;;1713244;28;20204;-67
2023/04/01 08:15:27;;;;;;;2.40;0.80;;;10.70;97.20;;;;;;1713593;28;20210;-67
2023/04/01 08:16:24;;;;;;;2.35;0.80;;;10.70;97.20;;;;;;1714250;28;20204;-68
2023/04/01 08:17:23;;;;;;;2.40;0.80;;;10.70;97.20;;;;;;1715219;28;20201;-68
2023/04/01 08:18:25;;;;;;;1.48;0.60;;;10.70;97.20;;;;;;1715273;28;20244;-67
2023/04/01 08:19:27;;;;;;;1.83;0.80;;;10.70;97.20;;;;;;1715129;28;20647;-66
2023/04/01 08:20:28;;;;;;;1.20;0.80;;;10.70;97.20;;;;;;1715125;28;20262;-66
2023/04/01 08:21:23;;;;;;;1.63;0.70;;;10.80;97.20;;;;;;1715126;28;20675;-66
2023/04/01 08:22:22;;;;;;;2.05;0.90;;;10.80;97.20;;;;;;1715115;28;20552;-66
2023/04/01 08:23:17;;;;;;;2.80;0.70;;;10.80;97.20;;;;;;1715031;28;20202;-66
2023/04/01 08:24:24;;;;;;;2.45;1.00;;;10.80;97.20;;;;;;1707987;29;20209;-67
2023/04/01 08:25:21;;;;;;;1.50;0.70;;;10.80;97.20;;;;;;1708363;29;20217;-66
2023/04/01 08:26:18;;;;;;;1.20;0.80;;;10.80;97.20;;;;;;1708546;29;20206;-67
2023/04/01 08:27:16;;;;;;;2.13;1.15;;;10.80;97.20;;;;;;1708480;29;20226;-67
2023/04/01 08:28:15;;;;;;;3.38;2.42;;;10.80;97.20;;;;;;1708354;29;20210;-67
2023/04/01 08:29:13;;;;;;;11.60;2.25;;;10.90;97.20;;;;;;1708431;29;20221;-68
2023/04/01 08:30:16;;;;;;;1.33;0.85;;;10.90;97.20;;;;;;1708436;29;20213;-66
2023/04/01 08:31:13;;;;;;;2.67;0.90;;;10.90;97.20;;;;;;1708380;29;20688;-66
2023/04/01 08:32:10;;;;;;;2.22;0.90;;;10.90;97.20;;;;;;1708467;29;20202;-67
2023/04/01 08:33:08;;;;;;;1.45;0.80;;;10.90;97.20;;;;;;1708253;29;20210;-66
2023/04/01 08:34:01;;;;;;;1.33;0.70;;;10.90;97.20;;;;;;1712959;28;20545;-65
2023/04/01 08:34:59;;;;;;;2.38;0.82;;;11.00;97.20;;;;;;1715049;28;20198;-65
2023/04/01 08:35:54;;;;;;;2.45;1.27;;;11.00;97.20;;;;;;1714993;28;20202;-66
2023/04/01 08:36:53;;;;;;;1.55;0.85;;;11.00;97.20;;;;;;1715035;28;20202;-65
2023/04/01 08:37:47;;;;;;;1.10;0.60;;;10.90;97.20;;;;;;1714996;28;20272;-66
2023/04/01 08:38:43;;;;;;;1.00;0.60;;;11.00;97.20;;;;;;1713910;28;20220;-67
2023/04/01 08:39:38;;;;;;;1.10;0.80;;;10.90;97.20;;;;;;1708306;28;20287;-66
2023/04/01 08:40:58;;;;;;;1.05;0.57;;;10.90;97.20;;;;;;1708156;29;20652;-66
2023/04/01 08:42:33;;;;;;;1.35;0.70;;;11.00;97.20;;;;;;1708338;29;20210;-66
2023/04/01 08:43:38;;;;;;;1.60;0.70;;;10.90;97.20;;;;;;1698110;28;20208;-65
2023/04/01 08:45:00;;;;;;;1.38;0.75;;;10.90;97.20;;;;;;1707902;29;20210;-65
2023/04/01 08:46:10;;;;;;;1.15;0.70;;;10.80;97.20;;;;;;1708164;29;20218;-66
2023/04/01 08:47:25;;;;;;;1.00;0.63;;;10.80;97.20;;;;;;1708255;29;20261;-67
2023/04/01 08:48:39;;;;;;;1.55;0.77;;;10.70;97.20;;;;;;1708311;29;20213;-65
2023/04/01 08:49:51;;;;;;;1.38;0.70;;;10.70;97.20;;;;;;1708301;29;20299;-66
2023/04/01 08:51:23;;;;;;;1.05;0.70;;;10.60;97.20;;;;;;1709126;28;20219;-65
2023/04/01 08:52:33;;;;;;;2.47;0.80;;;10.50;97.20;;;;;;1713760;28;20445;-65
2023/04/01 08:53:44;;;;;;;2.08;1.05;;;10.50;97.20;;;;;;1710493;28;20203;-65
2023/04/01 08:54:59;;;;;;;2.75;0.60;;;10.50;97.20;;;;;;1707863;28;20510;-65
2023/04/01 08:56:04;;;;;;;1.90;0.80;;;10.40;97.20;;;;;;1708145;28;20213;-66
2023/04/01 08:57:01;;;;;;;1.60;0.68;;;10.40;97.20;;;;;;1708268;28;20692;-65
2023/04/01 08:58:06;;;;;;;4.30;0.80;;;10.30;97.20;;;;;;1708253;28;20203;-65
2023/04/01 08:59:39;;;;;;;1.80;0.60;;;10.30;97.20;;;;;;1708275;29;20703;-66
2023/04/01 09:00:32;;;;;;;1.20;0.60;;;10.30;97.20;;;;;;1688203;29;20685;-64
2023/04/01 09:01:48;;;;;;;3.58;0.65;;;10.30;97.20;;;;;;1691728;29;20204;-66
2023/04/01 09:03:13;;;;;;;1.27;0.90;;;10.30;97.20;;;;;;1689441;29;20761;-66
2023/04/01 09:04:25;;;;;;;2.80;0.95;;;10.30;97.20;;;;;;1691980;29;20211;-65
2023/04/01 09:05:37;;;;;;;1.50;1.10;;;10.30;97.20;;;;;;1693264;29;20200;-66
2023/04/01 09:06:40;;;;;;;2.58;0.70;;;10.40;97.20;;;;;;1703044;28;20206;-65
2023/04/01 09:07:43;;;;;;;1.15;0.80;;;10.40;97.20;;;;;;1708097;28;20570;-66
2023/04/01 09:08:52;;;;;;;2.45;0.90;;;10.40;97.20;;;;;;1708137;29;20261;-65
2023/04/01 09:10:19;;;;;;;6.53;1.25;;;10.50;97.20;;;;;;1708092;29;20743;-66
2023/04/01 09:11:18;;;;;;;1.77;1.05;;;10.60;97.20;;;;;;1708179;29;20586;-65
2023/04/01 09:12:42;;;;;;;2.35;1.30;;;10.70;97.20;;;;;;1708300;28;20467;-65
2023/04/01 09:14:06;;;;;;;1.90;1.17;;;10.70;97.20;;;;;;1708332;28;20207;-65
2023/04/01 09:15:30;;;;;;;2.17;1.33;;;10.90;97.20;;;;;;1703066;29;20210;-66
2023/04/01 09:16:45;;;;;;;1.45;1.00;;;11.00;97.20;;;;;;1708112;28;20238;-65
2023/04/01 09:18:05;;;;;;;2.53;0.90;;;11.10;97.20;;;;;;1710118;28;20230;-65
2023/04/01 09:19:15;;;;;;;2.95;0.90;;;11.10;97.20;;;;;;1710117;28;20205;-65
2023/04/01 09:20:25;;;;;;;1.27;0.80;;;11.20;97.20;;;;;;1714852;28;20289;-65
2023/04/01 09:21:43;;;;;;;0.90;0.70;;;11.20;97.20;;;;;;1714754;28;20202;-65
2023/04/01 09:22:54;;;;;;;2.28;0.82;;;11.20;97.20;;;;;;1714527;28;20202;-65
2023/04/01 09:24:16;;;;;;;2.20;0.80;;;11.20;97.20;;;;;;1714785;28;20210;-65
2023/04/01 09:25:24;;;;;;;2.10;0.73;;;11.20;97.20;;;;;;1714729;28;20238;-65
2023/04/01 09:26:40;;;;;;;2.65;0.90;;;11.20;97.20;;;;;;1708130;29;20218;-65
2023/04/01 09:27:37;;;;;;;1.77;0.63;;;11.30;97.20;;;;;;1707594;29;20593;-65
2023/04/01 09:28:35;;;;;;;2.88;0.88;;;11.30;97.20;;;;;;1708169;29;20230;-65
2023/04/01 09:29:50;;;;;;;1.20;0.80;;;11.30;97.20;;;;;;1707966;28;20665;-66
2023/04/01 09:31:14;;;;;;;1.80;0.70;;;11.40;97.20;;;;;;1695428;29;20344;-65
2023/04/01 09:32:25;;;;;;;1.70;0.68;;;11.50;97.20;;;;;;1701246;29;20681;-65
2023/04/01 09:33:54;;;;;;;1.80;0.68;;;11.60;97.20;;;;;;1707906;28;20199;-65
2023/04/01 09:34:57;;;;;;;2.95;0.93;;;11.70;97.20;;;;;;1710163;28;20206;-65
2023/04/01 09:35:51;;;;;;;2.90;0.80;;;11.80;97.20;;;;;;1710641;28;20285;-66
2023/04/01 09:36:46;;;;;;;1.50;0.88;;;11.90;97.20;;;;;;1707496;29;20214;-66
2023/04/01 09:37:53;;;;;;;1.38;0.70;;;11.90;97.20;;;;;;1707336;28;20279;-65
2023/04/01 09:38:57;;;;;;;1.20;0.75;;;11.90;97.20;;;;;;1709442;28;20717;-65
2023/04/01 09:40:04;;;;;;;1.88;0.70;;;11.90;97.20;;;;;;1714641;28;20674;-65
2023/04/01 09:40:58;;;;;;;0.88;0.65;;;11.90;97.20;;;;;;1714689;28;20233;-66
2023/04/01 09:42:03;;;;;;;1.20;0.60;;;11.80;97.20;;;;;;1714655;28;20684;-65
2023/04/01 09:43:12;;;;;;;1.52;0.85;;;11.70;97.20;;;;;;1714421;28;20669;-66
2023/04/01 09:44:09;;;;;;;0.90;0.52;;;11.60;97.20;;;;;;1714007;28;20236;-65
2023/04/01 09:45:08;;;;;;;1.10;0.70;;;11.50;97.20;;;;;;1714563;28;20668;-66
2023/04/01 09:46:11;;;;;;;1.30;0.57;;;11.50;97.20;;;;;;1709332;28;20203;-66
2023/04/01 09:47:19;;;;;;;1.00;0.70;;;11.40;97.20;;;;;;1707904;28;20210;-67
2023/04/01 09:48:22;;;;;;;0.70;0.50;;;11.30;97.20;;;;;;1708982;28;20191;-65
2023/04/01 09:49:43;;;;;;;0.80;0.50;;;11.30;97.20;;;;;;1708022;29;20195;-65
2023/04/01 09:50:41;;;;;;;0.82;0.60;;;11.20;97.20;;;;;;1708629;28;20222;-65
2023/04/01 09:51:40;;;;;;;0.65;0.45;;;11.20;97.20;;;;;;1707901;29;20246;-65
2023/04/01 09:52:36;;;;;;;0.70;0.52;;;11.20;97.20;;;;;;1707831;28;20206;-65
2023/04/01 09:53:56;;;;;;;1.70;0.68;;;11.20;97.20;;;;;;1713243;28;20194;-64
2023/04/01 09:55:06;;;;;;;0.88;0.60;;;11.20;97.20;;;;;;1714484;28;20194;-64
2023/04/01 09:56:34;;;;;;;2.03;0.77;;;11.30;97.20;;;;;;1714027;28;20236;-65
2023/04/01 09:57:47;;;;;;;1.25;0.60;;;11.30;97.20;;;;;;1709132;28;20206;-65
2023/04/01 09:59:08;;;;;;;1.00;0.63;;;11.30;97.20;;;;;;1714370;28;20343;-64
2023/04/01 10:00:28;;;;;;;1.10;0.68;;;11.30;97.20;;;;;;1713869;28;20202;-64
2023/04/01 10:01:48;;;;;;;0.93;0.52;;;11.40;97.20;;;;;;1713358;28;20206;-65
2023/04/01 10:03:16;;;;;;;1.80;0.82;;;11.40;97.20;;;;;;1714295;28;20210;-65
2023/04/01 10:04:42;;;;;;;1.30;0.50;;;11.30;97.20;;;;;;1711981;28;20209;-64
2023/04/01 10:06:18;;;;;;;2.10;0.60;;;11.40;97.20;;;;;;1714551;28;20585;-64
2023/04/01 10:07:40;;;;;;;0.75;0.57;;;11.40;97.20;;;;;;1708014;29;20827;-66
2023/04/01 10:08:58;;;;;;;1.65;0.60;;;11.30;97.20;;;;;;1707922;29;20215;-65
2023/04/01 10:10:37;;;;;;;0.70;0.45;;;11.20;97.20;;;;;;1707869;29;20215;-66
2023/04/01 10:12:02;;;;;;;0.70;0.50;;;11.20;97.20;;;;;;1707896;29;20648;-63
2023/04/01 10:13:26;;;;;;;0.90;0.63;;;11.20;97.20;;;;;;1707702;29;20660;-65
2023/04/01 10:14:47;;;;;;;1.63;0.47;;;11.20;97.20;;;;;;1710516;28;20206;-68
2023/04/01 10:16:31;;;;;;;1.27;0.50;;;11.20;97.20;;;;;;1707326;28;20210;-67
2023/04/01 10:17:45;;;;;;;0.80;0.50;;;11.20;97.20;;;;;;1707639;28;20210;-67
2023/04/01 10:19:06;;;;;;;1.13;0.50;;;11.30;97.20;;;;;;1707808;28;20209;-67
2023/04/01 10:20:30;;;;;;;0.80;0.50;;;11.30;97.20;;;;;;1707685;28;20209;-67
2023/04/01 10:22:05;;;;;;;1.13;0.60;;;11.30;97.20;;;;;;1707793;28;20226;-66
2023/04/01 10:23:29;;;;;;;0.80;0.55;;;11.40;97.20;;;;;;1707510;28;20210;-64
2023/04/01 10:24:50;;;;;;;0.75;0.50;;;11.40;97.20;;;;;;1709616;28;20234;-64
2023/04/01 10:26:26;;;;;;;1.17;0.60;;;11.50;97.20;;;;;;1714152;28;20561;-66